Flight Track Log - Related Links

Times and Time Zones

All times are in EDT time to prevent confusion due to time zone crossing. See the DAL1076 flight status page for this flight to view local times or setup timezone preferences in your user account.

Time Position Orientation Groundspeed Altitude Reporting Facility
EDT Latitude Longitude Course Direction KTS MPH feet Rate Location/Type
Sat 12:13:37 AM 33.6333 -84.3833 64° Northeast 180 207 2,500  Level Atlanta TRACON
Sat 12:14:43 AM 33.6333 -84.3000 90° East 265 305 5,100 2,364 Climbing Atlanta TRACON
Sat 12:15:00 AM 33.6951 -83.9036 101° East  Level FlightAware Approximate
Sat 12:16:00 AM 33.6662 -83.7308 101° East  Level FlightAware Approximate
Sat 12:16:00 AM 33.7106 -84.0938 66° East  Level FlightAware Approximate
Sat 12:17:00 AM 33.6782 -83.5644 64° Northeast  Level FlightAware Approximate
Sat 12:18:00 AM 33.7427 -83.4061 64° Northeast  Level FlightAware Approximate
Sat 12:23:00 AM 33.8893 -83.0437 64° Northeast  Level FlightAware Approximate
Sat 12:24:00 AM 33.9530 -82.8846 64° Northeast  Level FlightAware Approximate
Sat 12:25:00 AM 34.0180 -82.7261 62° Northeast  Level FlightAware Approximate
Sat 12:26:00 AM 34.0816 -82.5670 70° East  Level FlightAware Approximate
Sat 12:27:00 AM 34.1373 -82.4037 62° Northeast  Level FlightAware Approximate
Sat 12:28:00 AM 34.2068 -82.2476 62° Northeast  Level FlightAware Approximate
Sat 12:29:00 AM 34.2871 -82.1006 48° Northeast  Level FlightAware Approximate
Sat 12:30:00 AM 34.3857 -81.9692 48° Northeast  Level FlightAware Approximate
Sat 12:31:00 AM 34.4865 -81.8402 48° Northeast  Level FlightAware Approximate
Sat 12:32:00 AM 34.5877 -81.7113 46° Northeast  Level FlightAware Approximate
Sat 12:33:00 AM 34.6860 -81.5793 51° Northeast  Level FlightAware Approximate
Sat 12:34:00 AM 34.7851 -81.4480 46° Northeast  Level FlightAware Approximate
Sat 12:35:00 AM 34.8874 -81.3200 46° Northeast  Level FlightAware Approximate
Sat 12:36:00 AM 34.9881 -81.1899 46° Northeast  Level FlightAware Approximate
Sat 12:37:00 AM 35.0906 -81.0618 46° Northeast  Level FlightAware Approximate
Sat 12:38:00 AM 35.2324 -81.0637 352° North  Level FlightAware Approximate
Sat 12:39:00 AM 35.2137 -80.9491 356° North  Level Estimated
Sat 12:40:00 AM 35.2137 -80.9491 North  Level Estimated
Sat 12:41:00 AM 35.2137 -80.9491 158° South  Level Estimated
Sat 12:42:00 AM 35.2137 -80.9491 158° South  Level Estimated
Sat 12:43:00 AM 35.2137 -80.9491 158° South  Level Estimated
Sat 12:44:00 AM 35.2137 -80.9491 158° South  Level Estimated
Sat 12:45:00 AM 35.2137 -80.9491 158° South  Level Estimated
Sat 12:46:00 AM 35.2137 -80.9491 158° South  Level Estimated
Sat 12:47:00 AM 35.2137 -80.9491 158° South  Level Estimated
Sat 12:48:00 AM 35.2137 -80.9491 158° South  Level Estimated
Sat 12:49:00 AM 35.2137 -80.9491 158° South  Level Estimated
Sat 12:50:00 AM 35.2137 -80.9491 158° South  Level Estimated
Sat 12:51:00 AM 35.2137 -80.9491 158° South  Level Estimated

Login

Don't have an account? Register now (free) for customized features, flight alerts, and more!